sensor_id;sensor_type;location;lat;lon;timestamp;P1;durP1;ratioP1;P2;durP2;ratioP2
69280;SDS011;56392;51.082;17.080;2024-02-04T00:00:27;6.05;;;1.50;;
69280;SDS011;56392;51.082;17.080;2024-02-04T00:06:10;5.27;;;1.50;;
69280;SDS011;56392;51.082;17.080;2024-02-04T00:11:35;6.45;;;1.30;;
69280;SDS011;56392;51.082;17.080;2024-02-04T00:16:58;3.45;;;0.80;;
69280;SDS011;56392;51.082;17.080;2024-02-04T00:22:21;1.93;;;0.50;;
69280;SDS011;56392;51.082;17.080;2024-02-04T00:27:46;4.00;;;0.70;;
69280;SDS011;56392;51.082;17.080;2024-02-04T00:33:10;2.78;;;0.65;;
69280;SDS011;56392;51.082;17.080;2024-02-04T00:38:33;2.47;;;0.50;;
69280;SDS011;56392;51.082;17.080;2024-02-04T00:44:00;2.40;;;0.60;;
69280;SDS011;56392;51.082;17.080;2024-02-04T00:49:23;3.58;;;0.57;;
69280;SDS011;56392;51.082;17.080;2024-02-04T00:54:47;3.35;;;0.70;;
69280;SDS011;56392;51.082;17.080;2024-02-04T01:00:12;5.83;;;0.80;;
69280;SDS011;56392;51.082;17.080;2024-02-04T01:05:36;2.95;;;0.60;;
69280;SDS011;56392;51.082;17.080;2024-02-04T01:10:58;4.78;;;0.70;;
69280;SDS011;56392;51.082;17.080;2024-02-04T01:16:23;4.77;;;0.60;;
69280;SDS011;56392;51.082;17.080;2024-02-04T01:21:46;5.43;;;1.00;;
69280;SDS011;56392;51.082;17.080;2024-02-04T01:27:09;7.45;;;1.13;;
69280;SDS011;56392;51.082;17.080;2024-02-04T01:32:33;7.35;;;1.20;;
69280;SDS011;56392;51.082;17.080;2024-02-04T01:37:56;5.57;;;1.20;;
69280;SDS011;56392;51.082;17.080;2024-02-04T01:43:19;3.95;;;0.93;;
69280;SDS011;56392;51.082;17.080;2024-02-04T01:48:46;6.38;;;1.20;;
69280;SDS011;56392;51.082;17.080;2024-02-04T01:54:09;5.53;;;1.10;;
69280;SDS011;56392;51.082;17.080;2024-02-04T01:59:32;4.07;;;0.90;;
69280;SDS011;56392;51.082;17.080;2024-02-04T02:04:57;4.72;;;1.10;;
69280;SDS011;56392;51.082;17.080;2024-02-04T02:10:20;5.60;;;1.20;;
69280;SDS011;56392;51.082;17.080;2024-02-04T02:15:45;4.10;;;1.10;;
69280;SDS011;56392;51.082;17.080;2024-02-04T02:21:19;5.03;;;1.15;;
69280;SDS011;56392;51.082;17.080;2024-02-04T02:26:57;5.18;;;1.50;;
69280;SDS011;56392;51.082;17.080;2024-02-04T02:32:20;5.90;;;1.90;;
69280;SDS011;56392;51.082;17.080;2024-02-04T02:37:45;6.43;;;2.00;;
69280;SDS011;56392;51.082;17.080;2024-02-04T02:43:16;5.93;;;1.83;;
69280;SDS011;56392;51.082;17.080;2024-02-04T02:48:41;4.70;;;1.60;;
69280;SDS011;56392;51.082;17.080;2024-02-04T02:54:04;6.43;;;1.65;;
69280;SDS011;56392;51.082;17.080;2024-02-04T02:59:28;5.93;;;1.20;;
69280;SDS011;56392;51.082;17.080;2024-02-04T03:04:52;3.80;;;1.00;;
69280;SDS011;56392;51.082;17.080;2024-02-04T03:10:15;5.20;;;0.80;;
69280;SDS011;56392;51.082;17.080;2024-02-04T03:15:44;4.53;;;0.80;;
69280;SDS011;56392;51.082;17.080;2024-02-04T03:21:11;4.53;;;0.70;;
69280;SDS011;56392;51.082;17.080;2024-02-04T03:26:35;4.40;;;0.80;;
69280;SDS011;56392;51.082;17.080;2024-02-04T03:32:01;2.60;;;0.70;;
69280;SDS011;56392;51.082;17.080;2024-02-04T03:37:24;3.15;;;0.70;;
69280;SDS011;56392;51.082;17.080;2024-02-04T03:42:47;5.57;;;0.70;;
69280;SDS011;56392;51.082;17.080;2024-02-04T03:48:11;3.03;;;0.70;;
69280;SDS011;56392;51.082;17.080;2024-02-04T03:53:34;3.50;;;0.70;;
69280;SDS011;56392;51.082;17.080;2024-02-04T03:58:58;3.47;;;0.63;;
69280;SDS011;56392;51.082;17.080;2024-02-04T04:04:22;5.67;;;0.90;;
69280;SDS011;56392;51.082;17.080;2024-02-04T04:09:47;6.13;;;0.75;;
69280;SDS011;56392;51.082;17.080;2024-02-04T04:15:10;4.63;;;0.70;;
69280;SDS011;56392;51.082;17.080;2024-02-04T04:20:34;5.60;;;0.70;;
69280;SDS011;56392;51.082;17.080;2024-02-04T04:25:59;2.85;;;0.50;;
69280;SDS011;56392;51.082;17.080;2024-02-04T04:31:22;4.68;;;0.60;;
69280;SDS011;56392;51.082;17.080;2024-02-04T04:36:47;5.47;;;0.53;;
69280;SDS011;56392;51.082;17.080;2024-02-04T04:42:10;4.53;;;0.80;;
69280;SDS011;56392;51.082;17.080;2024-02-04T04:47:33;5.30;;;0.70;;
69280;SDS011;56392;51.082;17.080;2024-02-04T04:52:59;5.33;;;0.60;;
69280;SDS011;56392;51.082;17.080;2024-02-04T04:58:22;3.57;;;0.70;;
69280;SDS011;56392;51.082;17.080;2024-02-04T05:03:45;5.90;;;0.88;;
69280;SDS011;56392;51.082;17.080;2024-02-04T05:09:11;6.18;;;0.80;;
69280;SDS011;56392;51.082;17.080;2024-02-04T05:14:34;7.33;;;0.90;;
69280;SDS011;56392;51.082;17.080;2024-02-04T05:19:57;6.97;;;0.80;;
69280;SDS011;56392;51.082;17.080;2024-02-04T05:25:24;7.43;;;1.10;;
69280;SDS011;56392;51.082;17.080;2024-02-04T05:30:47;3.17;;;0.70;;
69280;SDS011;56392;51.082;17.080;2024-02-04T05:36:10;7.65;;;0.90;;
69280;SDS011;56392;51.082;17.080;2024-02-04T05:41:35;3.45;;;0.70;;
69280;SDS011;56392;51.082;17.080;2024-02-04T05:46:58;4.83;;;0.80;;
69280;SDS011;56392;51.082;17.080;2024-02-04T05:52:22;6.10;;;0.90;;
69280;SDS011;56392;51.082;17.080;2024-02-04T05:57:46;6.88;;;1.13;;
69280;SDS011;56392;51.082;17.080;2024-02-04T06:03:09;9.25;;;1.20;;
69280;SDS011;56392;51.082;17.080;2024-02-04T06:08:32;8.90;;;0.97;;
69280;SDS011;56392;51.082;17.080;2024-02-04T06:13:57;8.43;;;0.80;;
69280;SDS011;56392;51.082;17.080;2024-02-04T06:19:20;5.95;;;0.70;;
69280;SDS011;56392;51.082;17.080;2024-02-04T06:24:43;4.60;;;0.80;;
69280;SDS011;56392;51.082;17.080;2024-02-04T06:30:08;5.20;;;1.00;;
69280;SDS011;56392;51.082;17.080;2024-02-04T06:35:32;7.25;;;0.95;;
69280;SDS011;56392;51.082;17.080;2024-02-04T06:40:55;5.50;;;0.97;;
69280;SDS011;56392;51.082;17.080;2024-02-04T06:46:26;6.07;;;1.20;;
69280;SDS011;56392;51.082;17.080;2024-02-04T06:51:49;6.53;;;0.95;;
69280;SDS011;56392;51.082;17.080;2024-02-04T06:57:18;6.20;;;0.88;;
69280;SDS011;56392;51.082;17.080;2024-02-04T07:02:42;4.57;;;1.03;;
69280;SDS011;56392;51.082;17.080;2024-02-04T07:08:06;6.55;;;1.00;;
69280;SDS011;56392;51.082;17.080;2024-02-04T07:13:32;8.32;;;1.33;;
69280;SDS011;56392;51.082;17.080;2024-02-04T07:18:56;7.07;;;0.97;;
69280;SDS011;56392;51.082;17.080;2024-02-04T07:24:19;7.63;;;0.90;;
69280;SDS011;56392;51.082;17.080;2024-02-04T07:29:42;7.50;;;1.05;;
69280;SDS011;56392;51.082;17.080;2024-02-04T07:35:07;6.43;;;1.03;;
69280;SDS011;56392;51.082;17.080;2024-02-04T07:40:31;4.43;;;1.13;;
69280;SDS011;56392;51.082;17.080;2024-02-04T07:45:54;8.52;;;1.48;;
69280;SDS011;56392;51.082;17.080;2024-02-04T07:51:18;6.38;;;1.15;;
69280;SDS011;56392;51.082;17.080;2024-02-04T07:56:44;7.23;;;1.13;;
69280;SDS011;56392;51.082;17.080;2024-02-04T08:02:08;11.48;;;1.40;;
69280;SDS011;56392;51.082;17.080;2024-02-04T08:07:32;7.28;;;1.73;;
69280;SDS011;56392;51.082;17.080;2024-02-04T08:12:56;7.13;;;1.30;;
69280;SDS011;56392;51.082;17.080;2024-02-04T08:18:19;7.80;;;1.30;;
69280;SDS011;56392;51.082;17.080;2024-02-04T08:23:43;6.55;;;0.90;;
69280;SDS011;56392;51.082;17.080;2024-02-04T08:29:07;6.67;;;1.00;;
69280;SDS011;56392;51.082;17.080;2024-02-04T08:34:30;5.53;;;0.90;;
69280;SDS011;56392;51.082;17.080;2024-02-04T08:39:54;6.35;;;1.10;;
69280;SDS011;56392;51.082;17.080;2024-02-04T08:45:18;4.60;;;1.00;;
69280;SDS011;56392;51.082;17.080;2024-02-04T08:50:41;7.83;;;1.03;;
69280;SDS011;56392;51.082;17.080;2024-02-04T08:56:06;8.38;;;1.30;;
69280;SDS011;56392;51.082;17.080;2024-02-04T09:01:29;5.53;;;0.82;;
69280;SDS011;56392;51.082;17.080;2024-02-04T09:06:52;6.37;;;0.87;;
69280;SDS011;56392;51.082;17.080;2024-02-04T09:12:17;7.18;;;1.00;;
69280;SDS011;56392;51.082;17.080;2024-02-04T09:17:40;6.95;;;1.08;;
69280;SDS011;56392;51.082;17.080;2024-02-04T09:23:03;5.70;;;1.00;;
69280;SDS011;56392;51.082;17.080;2024-02-04T09:28:44;6.93;;;1.20;;
69280;SDS011;56392;51.082;17.080;2024-02-04T09:34:08;7.53;;;1.00;;
69280;SDS011;56392;51.082;17.080;2024-02-04T09:39:31;7.45;;;1.45;;
69280;SDS011;56392;51.082;17.080;2024-02-04T09:44:58;5.13;;;1.17;;
69280;SDS011;56392;51.082;17.080;2024-02-04T09:50:23;6.55;;;1.10;;
69280;SDS011;56392;51.082;17.080;2024-02-04T09:55:46;7.03;;;1.27;;
69280;SDS011;56392;51.082;17.080;2024-02-04T10:01:13;6.73;;;1.20;;
69280;SDS011;56392;51.082;17.080;2024-02-04T10:06:37;10.48;;;1.50;;
69280;SDS011;56392;51.082;17.080;2024-02-04T10:12:00;7.07;;;1.42;;
69280;SDS011;56392;51.082;17.080;2024-02-04T10:17:25;7.20;;;1.50;;
69280;SDS011;56392;51.082;17.080;2024-02-04T10:22:49;6.67;;;1.50;;
69280;SDS011;56392;51.082;17.080;2024-02-04T10:28:12;9.20;;;1.67;;
69280;SDS011;56392;51.082;17.080;2024-02-04T10:33:39;6.72;;;1.58;;
69280;SDS011;56392;51.082;17.080;2024-02-04T10:39:03;10.23;;;1.90;;
69280;SDS011;56392;51.082;17.080;2024-02-04T10:44:27;8.77;;;1.90;;
69280;SDS011;56392;51.082;17.080;2024-02-04T10:49:55;9.18;;;2.10;;
69280;SDS011;56392;51.082;17.080;2024-02-04T10:55:22;7.53;;;2.13;;
69280;SDS011;56392;51.082;17.080;2024-02-04T11:00:51;6.47;;;2.00;;
69280;SDS011;56392;51.082;17.080;2024-02-04T11:06:19;7.63;;;2.30;;
69280;SDS011;56392;51.082;17.080;2024-02-04T11:11:43;8.23;;;2.50;;
69280;SDS011;56392;51.082;17.080;2024-02-04T11:17:19;9.63;;;2.63;;
69280;SDS011;56392;51.082;17.080;2024-02-04T11:23:05;9.05;;;2.42;;
69280;SDS011;56392;51.082;17.080;2024-02-04T11:28:40;9.45;;;2.60;;
69280;SDS011;56392;51.082;17.080;2024-02-04T11:34:04;7.93;;;2.70;;
69280;SDS011;56392;51.082;17.080;2024-02-04T11:39:29;9.05;;;2.80;;
69280;SDS011;56392;51.082;17.080;2024-02-04T11:45:06;6.88;;;2.47;;
69280;SDS011;56392;51.082;17.080;2024-02-04T11:50:31;6.87;;;2.37;;
69280;SDS011;56392;51.082;17.080;2024-02-04T11:56:02;7.60;;;2.38;;
69280;SDS011;56392;51.082;17.080;2024-02-04T12:01:25;6.85;;;2.55;;
69280;SDS011;56392;51.082;17.080;2024-02-04T12:06:49;7.67;;;2.63;;
69280;SDS011;56392;51.082;17.080;2024-02-04T12:12:14;6.93;;;2.37;;
69280;SDS011;56392;51.082;17.080;2024-02-04T12:17:37;6.20;;;2.20;;
69280;SDS011;56392;51.082;17.080;2024-02-04T12:23:01;7.63;;;2.25;;
69280;SDS011;56392;51.082;17.080;2024-02-04T12:28:30;6.20;;;2.20;;
69280;SDS011;56392;51.082;17.080;2024-02-04T12:33:56;6.57;;;2.03;;
69280;SDS011;56392;51.082;17.080;2024-02-04T12:39:21;6.57;;;2.00;;
69280;SDS011;56392;51.082;17.080;2024-02-04T12:44:57;7.27;;;2.20;;
69280;SDS011;56392;51.082;17.080;2024-02-04T12:50:21;8.90;;;1.85;;
69280;SDS011;56392;51.082;17.080;2024-02-04T12:55:57;6.25;;;2.03;;
69280;SDS011;56392;51.082;17.080;2024-02-04T13:01:23;5.70;;;1.60;;
69280;SDS011;56392;51.082;17.080;2024-02-04T13:06:46;7.03;;;1.80;;
69280;SDS011;56392;51.082;17.080;2024-02-04T13:12:09;5.35;;;1.70;;
69280;SDS011;56392;51.082;17.080;2024-02-04T13:17:34;8.43;;;1.80;;
69280;SDS011;56392;51.082;17.080;2024-02-04T13:22:59;5.27;;;1.40;;
69280;SDS011;56392;51.082;17.080;2024-02-04T13:28:25;5.55;;;1.35;;
69280;SDS011;56392;51.082;17.080;2024-02-04T13:33:51;5.93;;;1.55;;
69280;SDS011;56392;51.082;17.080;2024-02-04T13:39:15;5.30;;;1.37;;
69280;SDS011;56392;51.082;17.080;2024-02-04T13:44:39;6.00;;;1.40;;
69280;SDS011;56392;51.082;17.080;2024-02-04T13:50:05;6.95;;;1.48;;
69280;SDS011;56392;51.082;17.080;2024-02-04T13:55:31;6.47;;;1.50;;
69280;SDS011;56392;51.082;17.080;2024-02-04T14:00:54;5.53;;;1.30;;
69280;SDS011;56392;51.082;17.080;2024-02-04T14:06:19;7.47;;;1.83;;
69280;SDS011;56392;51.082;17.080;2024-02-04T14:11:42;8.88;;;1.70;;
69280;SDS011;56392;51.082;17.080;2024-02-04T14:17:06;7.47;;;1.60;;
69280;SDS011;56392;51.082;17.080;2024-02-04T14:22:30;5.30;;;1.73;;
69280;SDS011;56392;51.082;17.080;2024-02-04T14:27:55;5.07;;;1.58;;
69280;SDS011;56392;51.082;17.080;2024-02-04T14:33:18;5.87;;;1.70;;
69280;SDS011;56392;51.082;17.080;2024-02-04T14:38:43;6.28;;;1.60;;
69280;SDS011;56392;51.082;17.080;2024-02-04T14:44:06;8.88;;;1.60;;
69280;SDS011;56392;51.082;17.080;2024-02-04T14:49:30;6.23;;;1.20;;
69280;SDS011;56392;51.082;17.080;2024-02-04T14:54:56;12.13;;;1.53;;
69280;SDS011;56392;51.082;17.080;2024-02-04T15:00:19;7.22;;;1.40;;
69280;SDS011;56392;51.082;17.080;2024-02-04T15:05:46;5.00;;;1.10;;
69280;SDS011;56392;51.082;17.080;2024-02-04T15:11:11;8.10;;;1.07;;
69280;SDS011;56392;51.082;17.080;2024-02-04T15:16:36;6.97;;;1.20;;
69280;SDS011;56392;51.082;17.080;2024-02-04T15:22:00;5.97;;;1.10;;
69280;SDS011;56392;51.082;17.080;2024-02-04T15:27:26;5.70;;;1.20;;
69280;SDS011;56392;51.082;17.080;2024-02-04T15:32:50;5.18;;;0.90;;
69280;SDS011;56392;51.082;17.080;2024-02-04T15:38:15;4.45;;;0.95;;
69280;SDS011;56392;51.082;17.080;2024-02-04T15:43:40;5.13;;;0.90;;
69280;SDS011;56392;51.082;17.080;2024-02-04T15:49:05;9.97;;;1.10;;
69280;SDS011;56392;51.082;17.080;2024-02-04T15:54:34;9.43;;;1.20;;
69280;SDS011;56392;51.082;17.080;2024-02-04T16:00:00;5.93;;;1.10;;
69280;SDS011;56392;51.082;17.080;2024-02-04T16:05:32;5.37;;;1.00;;
69280;SDS011;56392;51.082;17.080;2024-02-04T16:10:55;4.82;;;1.00;;
69280;SDS011;56392;51.082;17.080;2024-02-04T16:16:27;5.18;;;1.00;;
69280;SDS011;56392;51.082;17.080;2024-02-04T16:21:58;4.10;;;1.00;;
69280;SDS011;56392;51.082;17.080;2024-02-04T16:27:23;6.70;;;1.17;;
69280;SDS011;56392;51.082;17.080;2024-02-04T16:32:49;5.63;;;1.20;;
69280;SDS011;56392;51.082;17.080;2024-02-04T16:38:13;5.47;;;1.10;;
69280;SDS011;56392;51.082;17.080;2024-02-04T16:43:36;5.10;;;1.27;;
69280;SDS011;56392;51.082;17.080;2024-02-04T16:49:00;5.97;;;1.30;;
69280;SDS011;56392;51.082;17.080;2024-02-04T16:54:27;7.22;;;1.55;;
69280;SDS011;56392;51.082;17.080;2024-02-04T16:59:52;8.07;;;1.60;;
69280;SDS011;56392;51.082;17.080;2024-02-04T17:05:25;7.35;;;1.48;;
69280;SDS011;56392;51.082;17.080;2024-02-04T17:10:50;11.02;;;1.60;;
69280;SDS011;56392;51.082;17.080;2024-02-04T17:16:16;6.97;;;1.20;;
69280;SDS011;56392;51.082;17.080;2024-02-04T17:21:46;5.80;;;1.35;;
69280;SDS011;56392;51.082;17.080;2024-02-04T17:27:13;9.60;;;1.92;;
69280;SDS011;56392;51.082;17.080;2024-02-04T17:32:39;9.50;;;1.90;;
69280;SDS011;56392;51.082;17.080;2024-02-04T17:38:07;8.40;;;1.90;;
69280;SDS011;56392;51.082;17.080;2024-02-04T17:43:32;8.02;;;1.52;;
69280;SDS011;56392;51.082;17.080;2024-02-04T17:48:56;5.85;;;1.42;;
69280;SDS011;56392;51.082;17.080;2024-02-04T17:54:21;7.17;;;1.53;;
69280;SDS011;56392;51.082;17.080;2024-02-04T17:59:45;5.05;;;1.38;;
69280;SDS011;56392;51.082;17.080;2024-02-04T18:05:08;5.20;;;1.42;;
69280;SDS011;56392;51.082;17.080;2024-02-04T18:10:33;5.17;;;1.60;;
69280;SDS011;56392;51.082;17.080;2024-02-04T18:15:57;6.57;;;1.38;;
69280;SDS011;56392;51.082;17.080;2024-02-04T18:21:21;6.03;;;1.60;;
69280;SDS011;56392;51.082;17.080;2024-02-04T18:26:46;7.17;;;1.60;;
69280;SDS011;56392;51.082;17.080;2024-02-04T18:32:11;5.80;;;1.50;;
69280;SDS011;56392;51.082;17.080;2024-02-04T18:37:37;6.32;;;1.42;;
69280;SDS011;56392;51.082;17.080;2024-02-04T18:43:03;6.60;;;1.67;;
69280;SDS011;56392;51.082;17.080;2024-02-04T18:48:27;7.17;;;1.20;;
69280;SDS011;56392;51.082;17.080;2024-02-04T18:53:51;6.97;;;1.30;;
69280;SDS011;56392;51.082;17.080;2024-02-04T18:59:18;5.50;;;1.40;;
69280;SDS011;56392;51.082;17.080;2024-02-04T19:04:53;6.70;;;1.50;;
69280;SDS011;56392;51.082;17.080;2024-02-04T19:10:17;6.78;;;1.40;;
69280;SDS011;56392;51.082;17.080;2024-02-04T19:15:44;7.13;;;1.50;;
69280;SDS011;56392;51.082;17.080;2024-02-04T19:21:08;9.47;;;1.83;;
69280;SDS011;56392;51.082;17.080;2024-02-04T19:26:31;8.63;;;1.40;;
69280;SDS011;56392;51.082;17.080;2024-02-04T19:31:58;6.82;;;1.45;;
69280;SDS011;56392;51.082;17.080;2024-02-04T19:37:23;7.60;;;1.42;;
69280;SDS011;56392;51.082;17.080;2024-02-04T19:42:46;7.50;;;1.40;;
69280;SDS011;56392;51.082;17.080;2024-02-04T19:48:11;5.32;;;1.20;;
69280;SDS011;56392;51.082;17.080;2024-02-04T19:53:35;5.57;;;1.10;;
69280;SDS011;56392;51.082;17.080;2024-02-04T19:58:58;4.43;;;0.90;;
69280;SDS011;56392;51.082;17.080;2024-02-04T20:04:27;5.00;;;0.95;;
69280;SDS011;56392;51.082;17.080;2024-02-04T20:09:50;4.40;;;0.98;;
69280;SDS011;56392;51.082;17.080;2024-02-04T20:15:13;4.20;;;0.87;;
69280;SDS011;56392;51.082;17.080;2024-02-04T20:20:42;4.30;;;0.90;;
69280;SDS011;56392;51.082;17.080;2024-02-04T20:26:07;3.92;;;0.80;;
69280;SDS011;56392;51.082;17.080;2024-02-04T20:31:33;2.50;;;0.52;;
69280;SDS011;56392;51.082;17.080;2024-02-04T20:36:58;5.17;;;0.70;;
69280;SDS011;56392;51.082;17.080;2024-02-04T20:42:22;4.85;;;0.80;;
69280;SDS011;56392;51.082;17.080;2024-02-04T20:47:45;4.63;;;0.55;;
69280;SDS011;56392;51.082;17.080;2024-02-04T20:53:11;2.50;;;0.60;;
69280;SDS011;56392;51.082;17.080;2024-02-04T20:58:36;2.33;;;0.50;;
69280;SDS011;56392;51.082;17.080;2024-02-04T21:04:00;3.35;;;0.55;;
69280;SDS011;56392;51.082;17.080;2024-02-04T21:09:25;2.57;;;0.50;;
69280;SDS011;56392;51.082;17.080;2024-02-04T21:14:50;4.40;;;0.60;;
69280;SDS011;56392;51.082;17.080;2024-02-04T21:20:13;2.80;;;0.50;;
69280;SDS011;56392;51.082;17.080;2024-02-04T21:25:38;2.63;;;0.50;;
69280;SDS011;56392;51.082;17.080;2024-02-04T21:31:03;2.13;;;0.40;;
69280;SDS011;56392;51.082;17.080;2024-02-04T21:36:26;2.40;;;0.47;;
69280;SDS011;56392;51.082;17.080;2024-02-04T21:41:50;4.65;;;0.90;;
69280;SDS011;56392;51.082;17.080;2024-02-04T21:47:14;2.67;;;0.50;;
69280;SDS011;56392;51.082;17.080;2024-02-04T21:52:41;2.72;;;0.57;;
69280;SDS011;56392;51.082;17.080;2024-02-04T21:58:06;3.92;;;0.68;;
69280;SDS011;56392;51.082;17.080;2024-02-04T22:03:32;3.30;;;0.63;;
69280;SDS011;56392;51.082;17.080;2024-02-04T22:08:56;3.97;;;0.60;;
69280;SDS011;56392;51.082;17.080;2024-02-04T22:14:23;2.90;;;0.50;;
69280;SDS011;56392;51.082;17.080;2024-02-04T22:19:47;2.58;;;0.40;;
69280;SDS011;56392;51.082;17.080;2024-02-04T22:25:10;4.67;;;0.50;;
69280;SDS011;56392;51.082;17.080;2024-02-04T22:30:35;3.03;;;0.65;;
69280;SDS011;56392;51.082;17.080;2024-02-04T22:35:58;2.85;;;0.60;;
69280;SDS011;56392;51.082;17.080;2024-02-04T22:41:22;3.43;;;0.70;;
69280;SDS011;56392;51.082;17.080;2024-02-04T22:46:47;3.80;;;0.70;;
69280;SDS011;56392;51.082;17.080;2024-02-04T22:52:10;2.95;;;0.57;;
69280;SDS011;56392;51.082;17.080;2024-02-04T22:57:34;3.47;;;0.70;;
69280;SDS011;56392;51.082;17.080;2024-02-04T23:03:02;3.33;;;0.80;;
69280;SDS011;56392;51.082;17.080;2024-02-04T23:08:27;3.00;;;0.70;;
69280;SDS011;56392;51.082;17.080;2024-02-04T23:13:50;2.85;;;0.65;;
69280;SDS011;56392;51.082;17.080;2024-02-04T23:19:15;3.73;;;0.70;;
69280;SDS011;56392;51.082;17.080;2024-02-04T23:24:41;2.53;;;0.60;;
69280;SDS011;56392;51.082;17.080;2024-02-04T23:30:05;3.63;;;0.70;;
69280;SDS011;56392;51.082;17.080;2024-02-04T23:35:30;2.80;;;0.70;;
69280;SDS011;56392;51.082;17.080;2024-02-04T23:40:53;3.70;;;0.75;;
69280;SDS011;56392;51.082;17.080;2024-02-04T23:46:17;3.40;;;0.60;;
69280;SDS011;56392;51.082;17.080;2024-02-04T23:51:42;4.57;;;0.80;;
69280;SDS011;56392;51.082;17.080;2024-02-04T23:57:06;5.60;;;0.80;;
